createdAt,value
2023-03-26T00:00:15.715Z,56.49609
2023-03-26T00:00:45.718Z,56.89941
2023-03-26T00:01:15.773Z,56.28125
2023-03-26T00:01:45.767Z,57.04102
2023-03-26T00:02:15.761Z,56.77246
2023-03-26T00:02:45.754Z,55.9375
2023-03-26T00:03:15.732Z,55.50977
2023-03-26T00:03:45.718Z,55.16309
2023-03-26T00:04:15.722Z,54.91406
2023-03-26T00:04:45.720Z,55.2207
2023-03-26T00:05:15.739Z,55.68457
2023-03-26T00:05:45.938Z,55.56152
2023-03-26T00:06:15.729Z,55.20117
2023-03-26T00:06:45.713Z,55.32031
2023-03-26T00:07:15.724Z,54.9541
2023-03-26T00:07:45.716Z,55.6543
2023-03-26T00:08:15.721Z,56.06055
2023-03-26T00:08:45.812Z,56.11133
2023-03-26T00:09:15.728Z,55.63867
2023-03-26T00:09:45.716Z,54.93359
2023-03-26T00:10:15.731Z,55.08789
2023-03-26T00:10:45.714Z,55.86035
2023-03-26T00:11:15.717Z,54.94141
2023-03-26T00:11:45.713Z,55.45801
2023-03-26T00:12:15.714Z,54.61133
2023-03-26T00:12:45.718Z,55.53711
2023-03-26T00:13:15.725Z,56.15625
2023-03-26T00:13:45.722Z,55.61816
2023-03-26T00:14:15.719Z,54.63477
2023-03-26T00:14:45.722Z,53.82715
2023-03-26T00:15:15.717Z,54.10938
2023-03-26T00:15:45.719Z,53.48145
2023-03-26T00:16:15.782Z,53.96191
2023-03-26T00:16:45.740Z,53.94238
2023-03-26T00:17:15.713Z,54.93066
2023-03-26T00:17:45.760Z,54.5498
2023-03-26T00:18:15.720Z,54.06836
2023-03-26T00:18:45.713Z,54.39258
2023-03-26T00:19:15.747Z,54.5332
2023-03-26T00:19:45.715Z,54.02734
2023-03-26T00:20:15.713Z,53.72754
2023-03-26T00:20:45.755Z,53.63477
2023-03-26T00:21:15.760Z,53.41309
2023-03-26T00:21:45.751Z,53.86719
2023-03-26T00:22:15.721Z,53.89648
2023-03-26T00:22:45.725Z,54.58398
2023-03-26T00:23:15.730Z,54.60156
2023-03-26T00:23:45.721Z,53.94629
2023-03-26T00:24:15.720Z,53.53027
2023-03-26T00:24:45.724Z,53.71973
2023-03-26T00:25:15.714Z,53.52832
2023-03-26T00:25:45.941Z,54.2168
2023-03-26T00:26:15.718Z,54.56641
2023-03-26T00:26:45.722Z,55.18262
2023-03-26T00:27:15.742Z,55.58984
2023-03-26T00:27:45.748Z,55.62305
2023-03-26T00:28:15.732Z,56.68848
2023-03-26T00:28:45.731Z,56.23047
2023-03-26T00:29:15.752Z,56.2666
2023-03-26T00:29:45.725Z,57.34277
2023-03-26T00:30:15.718Z,57.37402
2023-03-26T00:30:45.725Z,57.30176
2023-03-26T00:31:15.751Z,57.34277
2023-03-26T00:31:45.723Z,56.50391
2023-03-26T00:32:15.729Z,56.42285
2023-03-26T00:32:45.742Z,56.12305
2023-03-26T00:33:16.650Z,56.49121
2023-03-26T00:33:45.725Z,56.07227
2023-03-26T00:34:15.810Z,56.7002
2023-03-26T00:34:45.729Z,56.12402
2023-03-26T00:35:15.728Z,56.81055
2023-03-26T00:35:45.747Z,57.12793
2023-03-26T00:36:15.776Z,57.14355
2023-03-26T00:36:45.724Z,57.59961
2023-03-26T00:37:15.738Z,57.00488
2023-03-26T00:37:45.726Z,57.36816
2023-03-26T00:38:15.722Z,56.6748
2023-03-26T00:38:45.726Z,55.55273
2023-03-26T00:39:15.727Z,56.41895
2023-03-26T00:39:45.736Z,57.22266
2023-03-26T00:40:15.731Z,57.76367
2023-03-26T00:40:45.730Z,57.71289
2023-03-26T00:41:15.729Z,57.30078
2023-03-26T00:41:45.734Z,57.50098
2023-03-26T00:42:15.736Z,56.99023
2023-03-26T00:42:45.735Z,55.67676
2023-03-26T00:43:15.733Z,55.33594
2023-03-26T00:43:45.757Z,55.83789
2023-03-26T00:44:15.735Z,56.38672
2023-03-26T00:44:45.744Z,56.41992
2023-03-26T00:45:15.729Z,55.7793
2023-03-26T00:45:45.760Z,55.79199
2023-03-26T00:46:15.867Z,56.07129
2023-03-26T00:46:45.774Z,55.9541
2023-03-26T00:47:15.725Z,56.02051
2023-03-26T00:47:45.757Z,55.47656
2023-03-26T00:48:15.776Z,54.98926
2023-03-26T00:48:46.233Z,55.07227
2023-03-26T00:49:15.731Z,54.62793
2023-03-26T00:49:45.730Z,54.72266
2023-03-26T00:50:15.752Z,55.24512
2023-03-26T00:50:45.736Z,54.51758
2023-03-26T00:51:15.945Z,53.98242
2023-03-26T00:51:45.732Z,53.7666
2023-03-26T00:52:15.733Z,53.98535
2023-03-26T00:52:45.736Z,54.85645
2023-03-26T00:53:15.749Z,55.52734
2023-03-26T00:53:45.742Z,55.41797
2023-03-26T00:54:15.766Z,54.50879
2023-03-26T00:54:45.733Z,54.39746
2023-03-26T00:55:15.731Z,54.20996
2023-03-26T00:55:45.740Z,54.95313
2023-03-26T00:56:15.748Z,54.62012
2023-03-26T00:56:45.768Z,55.3252
2023-03-26T00:57:25.622Z,56.00879
2023-03-26T00:57:46.693Z,55.7666
2023-03-26T00:58:15.740Z,55.75781
2023-03-26T00:58:45.739Z,55.74609
2023-03-26T00:59:15.743Z,54.94824
2023-03-26T00:59:45.731Z,55.27539
2023-03-26T01:00:15.747Z,54.5918
2023-03-26T01:00:46.847Z,54.2959
2023-03-26T01:01:15.777Z,54.51758
2023-03-26T01:01:45.833Z,55.70996
2023-03-26T01:02:15.798Z,55.45605
2023-03-26T01:02:45.853Z,55.19824
2023-03-26T01:03:26.576Z,54.46875
2023-03-26T01:03:57.092Z,54.11719
2023-03-26T01:04:16.692Z,53.96387
2023-03-26T01:04:45.852Z,53.29102
2023-03-26T01:05:15.772Z,53.46973
2023-03-26T01:05:45.738Z,53.59277
2023-03-26T01:06:15.731Z,53.65039
2023-03-26T01:06:45.734Z,53.63086
2023-03-26T01:07:15.745Z,53.45215
2023-03-26T01:07:45.734Z,53.12305
2023-03-26T01:08:15.733Z,52.76172
2023-03-26T01:08:45.785Z,52.57324
2023-03-26T01:09:15.751Z,53.61914
2023-03-26T01:09:45.751Z,54.26074
2023-03-26T01:10:15.751Z,54.36133
2023-03-26T01:10:45.738Z,54.44238
2023-03-26T01:11:15.749Z,53.76758
2023-03-26T01:11:45.787Z,53.73926
2023-03-26T01:12:15.740Z,53.52832
2023-03-26T01:12:45.741Z,52.90527
2023-03-26T01:13:15.730Z,52.79395
2023-03-26T01:13:45.736Z,53.23145
2023-03-26T01:14:15.735Z,52.79199
2023-03-26T01:14:45.737Z,53.04102
2023-03-26T01:15:15.740Z,53.49902
2023-03-26T01:15:45.777Z,54.82715
2023-03-26T01:16:15.752Z,55.71777
2023-03-26T01:16:45.736Z,54.97559
2023-03-26T01:17:15.738Z,54.5625
2023-03-26T01:17:45.780Z,54.24121
2023-03-26T01:18:15.734Z,54.22266
2023-03-26T01:18:45.745Z,54.40723
2023-03-26T01:19:15.734Z,54.48047
2023-03-26T01:19:45.738Z,55.15332
2023-03-26T01:20:15.733Z,55.64355
2023-03-26T01:20:45.735Z,55.5791
2023-03-26T01:21:15.735Z,55.64355
2023-03-26T01:21:45.738Z,54.92969
2023-03-26T01:22:15.737Z,54.27246
2023-03-26T01:22:45.737Z,54.11621
2023-03-26T01:23:15.741Z,53.7041
2023-03-26T01:23:45.736Z,53.87695
2023-03-26T01:24:15.739Z,54.42773
2023-03-26T01:24:45.745Z,54.75684
2023-03-26T01:25:15.735Z,55.42969
2023-03-26T01:25:45.761Z,56.44141
2023-03-26T01:26:15.741Z,55.875
2023-03-26T01:26:45.739Z,55.00391
2023-03-26T01:27:15.749Z,54.75098
2023-03-26T01:27:45.737Z,54.96484
2023-03-26T01:28:15.738Z,55.47559
2023-03-26T01:28:45.738Z,55.76172
2023-03-26T01:29:15.738Z,55.61523
2023-03-26T01:29:45.741Z,55.9043
2023-03-26T01:30:15.742Z,55.9375
2023-03-26T01:30:45.747Z,55.02344
2023-03-26T01:31:15.745Z,54.33301
2023-03-26T01:31:45.741Z,53.69336
2023-03-26T01:32:15.745Z,53.73438
2023-03-26T01:32:45.796Z,53.66895
2023-03-26T01:33:15.822Z,54.18066
2023-03-26T01:33:45.870Z,53.80762
2023-03-26T01:34:15.778Z,53.50098
2023-03-26T01:34:45.737Z,53.95117
2023-03-26T01:35:15.740Z,54.80957
2023-03-26T01:35:45.848Z,55.73926
2023-03-26T01:36:15.738Z,55.24512
2023-03-26T01:36:45.740Z,55.03906
2023-03-26T01:37:15.752Z,54.93164
2023-03-26T01:37:45.744Z,54.27734
2023-03-26T01:38:15.749Z,54.02734
2023-03-26T01:38:45.742Z,53.86914
2023-03-26T01:39:15.738Z,54.84961
2023-03-26T01:39:45.742Z,54.86035
2023-03-26T01:40:15.757Z,53.94336
2023-03-26T01:40:45.754Z,54.06934
2023-03-26T01:41:15.743Z,54.00781
2023-03-26T01:41:45.743Z,53.91113
2023-03-26T01:42:15.745Z,54.02344
2023-03-26T01:42:45.735Z,53.24805
2023-03-26T01:43:15.739Z,53.32617
2023-03-26T01:43:45.738Z,53.78027
2023-03-26T01:44:15.740Z,53.8125
2023-03-26T01:44:45.737Z,54.01953
2023-03-26T01:45:15.750Z,53.38477
2023-03-26T01:45:45.743Z,53.2002
2023-03-26T01:46:15.788Z,53.87207
2023-03-26T01:46:45.782Z,53.75488
2023-03-26T01:47:15.739Z,53.80078
2023-03-26T01:47:45.808Z,54.27148
2023-03-26T01:48:15.736Z,54.69922
2023-03-26T01:48:45.753Z,55.2627
2023-03-26T01:49:15.737Z,54.80566
2023-03-26T01:49:45.742Z,54.62109
2023-03-26T01:50:15.751Z,53.80371
2023-03-26T01:50:45.743Z,53.93945
2023-03-26T01:51:15.740Z,54.17773
2023-03-26T01:51:45.744Z,55.16504
2023-03-26T01:52:15.745Z,55.10254
2023-03-26T01:52:45.741Z,54.64551
2023-03-26T01:53:15.742Z,54.58398
2023-03-26T01:53:45.757Z,54.2207
2023-03-26T01:54:15.754Z,54.48145
2023-03-26T01:54:45.746Z,55.99219
2023-03-26T01:55:15.742Z,55.70117
2023-03-26T01:55:45.747Z,55.62109
2023-03-26T01:56:15.752Z,55.75977
2023-03-26T01:56:45.767Z,55.25195
2023-03-26T01:57:15.746Z,54.72461
2023-03-26T01:57:45.746Z,54.46094
2023-03-26T01:58:15.744Z,53.99121
2023-03-26T01:58:45.755Z,54.97363
2023-03-26T01:59:15.742Z,55.21973
2023-03-26T01:59:45.750Z,55.16309
2023-03-26T02:00:15.742Z,55.48145
2023-03-26T02:00:45.748Z,56.66602
2023-03-26T02:01:15.814Z,56.71191
2023-03-26T02:01:45.818Z,55.49219
2023-03-26T02:02:15.821Z,55.10059
2023-03-26T02:02:45.844Z,54.66699
2023-03-26T02:03:15.867Z,54.17871
2023-03-26T02:03:45.779Z,54.67285
2023-03-26T02:04:15.749Z,54.15625
2023-03-26T02:04:45.745Z,54.1084
2023-03-26T02:05:15.743Z,53.58789
2023-03-26T02:05:45.747Z,53.66113
2023-03-26T02:06:15.750Z,53.09375
2023-03-26T02:06:45.775Z,53.28418
2023-03-26T02:07:15.758Z,53.48242
2023-03-26T02:07:45.759Z,54.18848
2023-03-26T02:08:15.773Z,55.22852
2023-03-26T02:08:45.742Z,54.75684
2023-03-26T02:09:15.743Z,54.44141
2023-03-26T02:09:45.745Z,54.00879
2023-03-26T02:10:15.749Z,53.94922
2023-03-26T02:10:45.754Z,53.58496
2023-03-26T02:11:16.562Z,53.36328
2023-03-26T02:11:45.746Z,53.33496
2023-03-26T02:12:15.745Z,53.1123
2023-03-26T02:12:45.758Z,52.82715
2023-03-26T02:13:15.747Z,53.31836
2023-03-26T02:13:45.746Z,53.0918
2023-03-26T02:14:15.754Z,53.58789
2023-03-26T02:14:45.744Z,53.87598
2023-03-26T02:15:15.745Z,54.54395
2023-03-26T02:15:45.745Z,53.9873
2023-03-26T02:16:15.768Z,53.90918
2023-03-26T02:16:45.800Z,53.38184
2023-03-26T02:17:15.750Z,53.18262
2023-03-26T02:17:45.797Z,52.99512
2023-03-26T02:18:15.745Z,53.05469
2023-03-26T02:18:45.780Z,52.48438
2023-03-26T02:19:16.103Z,53
2023-03-26T02:19:45.756Z,52.91602
2023-03-26T02:20:15.750Z,52.89551
2023-03-26T02:20:45.753Z,52.62695
2023-03-26T02:21:15.747Z,52.35742
2023-03-26T02:21:45.745Z,52.45703
2023-03-26T02:22:15.927Z,54.06934
2023-03-26T02:22:45.930Z,54.10156
2023-03-26T02:23:15.754Z,53.81641
2023-03-26T02:23:45.745Z,53.4375
2023-03-26T02:24:15.749Z,53.99805
2023-03-26T02:24:45.751Z,53.78125
2023-03-26T02:25:15.758Z,53.49023
2023-03-26T02:25:45.741Z,53.82617
2023-03-26T02:26:15.754Z,53.65332
2023-03-26T02:26:45.754Z,53.45996
2023-03-26T02:27:15.752Z,53.00781
2023-03-26T02:27:45.752Z,52.84961
2023-03-26T02:28:15.741Z,53.54199
2023-03-26T02:28:45.760Z,53.80762
2023-03-26T02:29:15.747Z,53.60156
2023-03-26T02:29:45.761Z,53.94531
2023-03-26T02:30:15.762Z,53.44531
2023-03-26T02:30:45.744Z,53.11816
2023-03-26T02:31:15.782Z,53.36133
2023-03-26T02:31:45.766Z,53.24414
2023-03-26T02:32:15.754Z,54.02832
2023-03-26T02:32:45.780Z,54.55176
2023-03-26T02:33:15.764Z,54.33008
2023-03-26T02:33:45.745Z,54.34961
2023-03-26T02:34:15.745Z,55.24414
2023-03-26T02:34:45.751Z,55.22461
2023-03-26T02:35:15.812Z,54.72168
2023-03-26T02:35:45.956Z,54.59961
2023-03-26T02:36:15.803Z,55.31348
2023-03-26T02:36:45.796Z,54.63184
2023-03-26T02:37:15.756Z,54.38672
2023-03-26T02:37:45.748Z,54.35547
2023-03-26T02:38:15.760Z,54.82031
2023-03-26T02:38:45.748Z,54.48828
2023-03-26T02:39:15.747Z,55.16602
2023-03-26T02:39:45.756Z,54.92773
2023-03-26T02:40:15.751Z,54.07813
2023-03-26T02:40:45.752Z,54.25879
2023-03-26T02:41:15.778Z,54.82813
2023-03-26T02:41:45.773Z,55.26465
2023-03-26T02:42:15.752Z,54.87109
2023-03-26T02:42:45.747Z,55.40527
2023-03-26T02:43:15.753Z,55.7334
2023-03-26T02:43:45.750Z,55.0127
2023-03-26T02:44:15.746Z,54.16504
2023-03-26T02:44:45.746Z,53.95117
2023-03-26T02:45:15.751Z,53.5625
2023-03-26T02:45:45.807Z,53.18555
2023-03-26T02:46:15.895Z,52.96973
2023-03-26T02:46:45.755Z,52.57031
2023-03-26T02:47:15.753Z,52.25586
2023-03-26T02:47:45.782Z,51.75586
2023-03-26T02:48:15.766Z,51.66699
2023-03-26T02:48:45.755Z,51.34961
2023-03-26T02:49:15.754Z,51.1709
2023-03-26T02:49:45.754Z,51.36035
2023-03-26T02:50:15.760Z,51.69043
2023-03-26T02:50:45.758Z,51.60547
2023-03-26T02:51:15.748Z,51.59668
2023-03-26T02:51:45.756Z,51.67578
2023-03-26T02:52:15.749Z,51.5791
2023-03-26T02:52:45.761Z,51.65625
2023-03-26T02:53:15.753Z,51.67773
2023-03-26T02:53:45.757Z,51.6875
2023-03-26T02:54:15.754Z,51.81738
2023-03-26T02:54:45.756Z,51.62109
2023-03-26T02:55:15.751Z,51.25293
2023-03-26T02:55:45.754Z,51.125
2023-03-26T02:56:15.751Z,51.0625
2023-03-26T02:56:45.820Z,51.0752
2023-03-26T02:57:15.792Z,51.13086
2023-03-26T02:57:45.755Z,51.45801
2023-03-26T02:58:15.753Z,51.35938
2023-03-26T02:58:45.751Z,51.41406
2023-03-26T02:59:15.747Z,51.12012
2023-03-26T02:59:45.757Z,51.21875
2023-03-26T03:00:15.752Z,51.5127
2023-03-26T03:00:45.767Z,51.4248
2023-03-26T03:01:15.797Z,51.41406
2023-03-26T03:01:45.760Z,51.40332
2023-03-26T03:02:15.820Z,51.2959
2023-03-26T03:02:45.801Z,51.44434
2023-03-26T03:03:15.799Z,51.58301
2023-03-26T03:03:45.759Z,51.84961
2023-03-26T03:04:15.756Z,52.22363
2023-03-26T03:04:45.759Z,52.46973
2023-03-26T03:05:15.752Z,52.50684
2023-03-26T03:05:45.756Z,52.87988
2023-03-26T03:06:15.747Z,53.04688
2023-03-26T03:06:45.751Z,52.62305
2023-03-26T03:07:15.760Z,53.25586
2023-03-26T03:07:45.753Z,53.90625
2023-03-26T03:08:15.751Z,53.55469
2023-03-26T03:08:45.755Z,53.58496
2023-03-26T03:09:15.748Z,53.40039
2023-03-26T03:09:45.757Z,53.89355
2023-03-26T03:10:15.756Z,53.83496
2023-03-26T03:10:45.750Z,54.01465
2023-03-26T03:11:15.760Z,54.39551
2023-03-26T03:11:45.773Z,55.31348
2023-03-26T03:12:15.757Z,55.58105
2023-03-26T03:12:45.755Z,56.1084
2023-03-26T03:13:15.755Z,55.29199
2023-03-26T03:13:45.760Z,54.95996
2023-03-26T03:14:15.757Z,54.43652
2023-03-26T03:14:45.753Z,53.89258
2023-03-26T03:15:15.755Z,54.16992
2023-03-26T03:15:45.754Z,53.8916
2023-03-26T03:16:15.778Z,54.9248
2023-03-26T03:16:45.798Z,54.37207
2023-03-26T03:17:15.762Z,54.38477
2023-03-26T03:17:45.789Z,54.38574
2023-03-26T03:18:15.775Z,54.49512
2023-03-26T03:18:45.754Z,53.71191
2023-03-26T03:19:15.775Z,54.24121
2023-03-26T03:19:45.762Z,54.47852
2023-03-26T03:20:15.773Z,53.78906
2023-03-26T03:20:45.751Z,52.95508
2023-03-26T03:21:15.774Z,52.62695
2023-03-26T03:21:45.760Z,52.25684
2023-03-26T03:22:15.765Z,52.17676
2023-03-26T03:22:45.781Z,52.29004
2023-03-26T03:23:15.758Z,52.70508
2023-03-26T03:23:45.762Z,52.33984
2023-03-26T03:24:15.761Z,52.38965
2023-03-26T03:24:45.758Z,52.49512
2023-03-26T03:25:15.755Z,53.4082
2023-03-26T03:25:45.772Z,53.58887
2023-03-26T03:26:15.814Z,54.16211
2023-03-26T03:26:45.776Z,55.03516
2023-03-26T03:27:15.755Z,54.75586
2023-03-26T03:27:45.760Z,54.34277
2023-03-26T03:28:15.758Z,53.50391
2023-03-26T03:28:45.764Z,52.68262
2023-03-26T03:29:15.770Z,52.19043
2023-03-26T03:29:45.766Z,51.66406
2023-03-26T03:30:15.770Z,51.33203
2023-03-26T03:30:45.871Z,51.25391
2023-03-26T03:31:15.791Z,52.1123
2023-03-26T03:31:45.764Z,52.44629
2023-03-26T03:32:15.764Z,51.78711
2023-03-26T03:32:45.840Z,51.33887
2023-03-26T03:33:15.761Z,51.02148
2023-03-26T03:33:45.787Z,50.81152
2023-03-26T03:34:15.766Z,50.95898
2023-03-26T03:34:45.761Z,50.73535
2023-03-26T03:35:15.770Z,50.30859
2023-03-26T03:35:45.810Z,49.8125
2023-03-26T03:36:20.483Z,50.07617
2023-03-26T03:36:46.901Z,50.30762
2023-03-26T03:37:15.764Z,49.97852
2023-03-26T03:37:45.761Z,49.85254
2023-03-26T03:38:15.764Z,49.45605
2023-03-26T03:38:45.772Z,49.12793
2023-03-26T03:39:15.763Z,49.35156
2023-03-26T03:39:45.763Z,49.60547
2023-03-26T03:40:15.775Z,49.95605
2023-03-26T03:40:45.787Z,50.96387
2023-03-26T03:41:15.788Z,50.34375
2023-03-26T03:41:45.760Z,49.55566
2023-03-26T03:42:15.765Z,48.86914
2023-03-26T03:42:45.761Z,48.13477
2023-03-26T03:43:15.774Z,47.70117
2023-03-26T03:43:45.771Z,47.65039
2023-03-26T03:44:15.762Z,46.97754
2023-03-26T03:44:45.762Z,46.79688
2023-03-26T03:45:15.778Z,46.7207
2023-03-26T03:45:45.793Z,46.32324
2023-03-26T03:46:15.833Z,46.38477
2023-03-26T03:46:45.926Z,46.33789
2023-03-26T03:47:15.784Z,46.22363
2023-03-26T03:47:45.799Z,46.07422
2023-03-26T03:48:15.771Z,46.23633
2023-03-26T03:48:45.775Z,47.51563
2023-03-26T03:49:15.767Z,48.11328
2023-03-26T03:49:45.772Z,48.32813
2023-03-26T03:50:15.772Z,48.00391
2023-03-26T03:50:45.770Z,47.95703
2023-03-26T03:51:15.775Z,47.98926
2023-03-26T03:51:45.771Z,48.35645
2023-03-26T03:52:15.783Z,48.73828
2023-03-26T03:52:45.782Z,49.49707
2023-03-26T03:53:15.776Z,49.58691
2023-03-26T03:53:45.768Z,49.38477
2023-03-26T03:54:15.766Z,50.06348
2023-03-26T03:54:45.767Z,49.9873
2023-03-26T03:55:15.766Z,49.27832
2023-03-26T03:55:45.772Z,49.41016
2023-03-26T03:56:15.774Z,49.16309
2023-03-26T03:56:45.848Z,48.45215
2023-03-26T03:57:15.775Z,48.13281
2023-03-26T03:57:45.783Z,48.06445
2023-03-26T03:58:15.770Z,48.25488
2023-03-26T03:58:45.777Z,48.90723
2023-03-26T03:59:15.772Z,48.96094
2023-03-26T03:59:47.820Z,49.44531
2023-03-26T04:00:15.769Z,49.24609
2023-03-26T04:00:45.771Z,49.79395
2023-03-26T04:01:15.767Z,49.29883
2023-03-26T04:01:45.770Z,50.11426
2023-03-26T04:02:15.848Z,50.4834
2023-03-26T04:02:45.928Z,51.80859
2023-03-26T04:03:15.865Z,51.79492
2023-03-26T04:03:45.846Z,51.31934
2023-03-26T04:04:15.804Z,51.57422
2023-03-26T04:04:45.770Z,50.81738
2023-03-26T04:05:15.775Z,49.99121
2023-03-26T04:05:45.788Z,49.52441
2023-03-26T04:06:15.770Z,49.80957
2023-03-26T04:06:45.768Z,49.9375
2023-03-26T04:07:15.767Z,51.13574
2023-03-26T04:07:45.766Z,50.39941
2023-03-26T04:08:15.770Z,49.63574
2023-03-26T04:08:45.774Z,48.78027
2023-03-26T04:09:15.777Z,48.56641
2023-03-26T04:09:45.770Z,47.90625
2023-03-26T04:10:15.772Z,47.47266
2023-03-26T04:10:45.779Z,47.91211
2023-03-26T04:11:15.775Z,48.11133
2023-03-26T04:11:45.784Z,47.94141
2023-03-26T04:12:15.767Z,47.50488
2023-03-26T04:12:45.781Z,47.55273
2023-03-26T04:13:15.782Z,47.74219
2023-03-26T04:13:45.782Z,46.9873
2023-03-26T04:14:15.773Z,46.44434
2023-03-26T04:14:45.766Z,46.61426
2023-03-26T04:15:15.779Z,46.4248
2023-03-26T04:15:45.795Z,45.92188
2023-03-26T04:16:15.790Z,45.49609
2023-03-26T04:16:45.770Z,45.10254
2023-03-26T04:17:15.782Z,44.87207
2023-03-26T04:17:45.807Z,44.62988
2023-03-26T04:18:15.773Z,44.46387
2023-03-26T04:18:45.777Z,44.09277
2023-03-26T04:19:15.780Z,43.84766
2023-03-26T04:19:45.813Z,43.74707
2023-03-26T04:20:16.045Z,43.49512
2023-03-26T04:20:45.773Z,43.31055
2023-03-26T04:21:15.910Z,43.2793
2023-03-26T04:21:45.778Z,42.37305
2023-03-26T04:22:15.772Z,41.56641
2023-03-26T04:22:45.771Z,41.19922
2023-03-26T04:23:15.774Z,40.80469
2023-03-26T04:23:45.780Z,40.90625
2023-03-26T04:24:15.774Z,40.89355
2023-03-26T04:24:45.780Z,40.65234
2023-03-26T04:25:15.782Z,40.12598
2023-03-26T04:25:45.777Z,40.12305
2023-03-26T04:26:15.774Z,39.67969
2023-03-26T04:26:45.778Z,39.35742
2023-03-26T04:27:15.772Z,39.26465
2023-03-26T04:27:45.770Z,39.0752
2023-03-26T04:28:15.773Z,38.69727
2023-03-26T04:28:45.776Z,38.86816
2023-03-26T04:29:15.775Z,39.48242
2023-03-26T04:29:45.770Z,39.88672
2023-03-26T04:30:15.808Z,40.4043
2023-03-26T04:30:45.772Z,42.84766
2023-03-26T04:31:15.858Z,43.3877
2023-03-26T04:31:45.860Z,42.83203
2023-03-26T04:32:15.776Z,42.24121
2023-03-26T04:32:45.815Z,41.97559
2023-03-26T04:33:15.780Z,41.59473
2023-03-26T04:33:45.780Z,40.81445
2023-03-26T04:34:15.780Z,39.9707
2023-03-26T04:34:45.782Z,39.36035
2023-03-26T04:35:15.775Z,39.04688
2023-03-26T04:35:45.805Z,38.96875
2023-03-26T04:36:15.792Z,39.38086
2023-03-26T04:36:45.776Z,39.58105
2023-03-26T04:37:15.778Z,39.11133
2023-03-26T04:37:45.777Z,39.35254
2023-03-26T04:38:15.776Z,40.55469
2023-03-26T04:38:45.792Z,40.83008
2023-03-26T04:39:15.776Z,40.84961
2023-03-26T04:39:45.774Z,40.24902
2023-03-26T04:40:15.782Z,39.46289
2023-03-26T04:40:45.778Z,39.23633
2023-03-26T04:41:15.784Z,38.76172
2023-03-26T04:41:45.782Z,38.60449
2023-03-26T04:42:15.789Z,38.31641
2023-03-26T04:42:45.807Z,37.95996
2023-03-26T04:43:15.777Z,38
2023-03-26T04:43:45.780Z,37.66797
2023-03-26T04:44:15.780Z,37.56348
2023-03-26T04:44:45.780Z,39.05664
2023-03-26T04:45:15.799Z,39.84766
2023-03-26T04:45:45.785Z,39.89258
2023-03-26T04:46:15.792Z,38.91504
2023-03-26T04:46:45.828Z,37.75977
2023-03-26T04:47:15.777Z,37.99805
2023-03-26T04:47:45.813Z,36.83203
2023-03-26T04:48:15.779Z,36.13281
2023-03-26T04:48:45.786Z,34.41602
2023-03-26T04:49:15.804Z,32.0166
2023-03-26T04:49:45.781Z,30.25488
2023-03-26T04:50:15.780Z,30.24414
2023-03-26T04:50:45.784Z,29.7373
2023-03-26T04:51:15.783Z,30.47461
2023-03-26T04:51:45.782Z,30.40918
2023-03-26T04:52:15.778Z,28.1748
2023-03-26T04:52:45.775Z,26.82227
2023-03-26T04:53:15.787Z,26.37891
2023-03-26T04:53:45.779Z,25.85645
2023-03-26T04:54:15.787Z,24.92969
2023-03-26T04:54:45.790Z,24.53711
2023-03-26T04:55:15.786Z,24.86719
2023-03-26T04:55:45.786Z,25.78418
2023-03-26T04:56:15.781Z,28.25488
2023-03-26T04:56:45.944Z,28.64746
2023-03-26T04:57:15.839Z,26.78711
2023-03-26T04:57:45.779Z,25.29297
2023-03-26T04:58:15.785Z,26.53027
2023-03-26T04:58:45.784Z,25.49316
2023-03-26T04:59:15.785Z,24.62109
2023-03-26T04:59:45.785Z,22.6709
2023-03-26T05:00:15.782Z,22.14941
2023-03-26T05:00:45.820Z,21.3252
2023-03-26T05:01:15.826Z,21.88477
2023-03-26T05:01:45.985Z,22.36328
2023-03-26T05:02:15.793Z,22.52051
2023-03-26T05:02:45.889Z,23.3418
2023-03-26T05:03:15.787Z,23.33008
2023-03-26T05:03:46.055Z,22.60645
2023-03-26T05:04:15.816Z,22.49609
2023-03-26T05:04:45.974Z,23.35938
2023-03-26T05:05:15.783Z,24.15039
2023-03-26T05:05:45.787Z,24.12988
2023-03-26T05:06:15.783Z,23.63086
2023-03-26T05:06:45.784Z,22.31152
2023-03-26T05:07:15.787Z,23.40723
2023-03-26T05:07:45.781Z,22.22852
2023-03-26T05:08:15.781Z,21.53906
2023-03-26T05:08:45.812Z,21.25879
2023-03-26T05:09:15.791Z,20.65918
2023-03-26T05:09:45.789Z,20.57031
2023-03-26T05:10:15.783Z,20.54395
2023-03-26T05:10:45.789Z,21.30273
2023-03-26T05:11:15.788Z,21.60352
2023-03-26T05:11:45.788Z,20.8125
2023-03-26T05:12:15.794Z,23.48047
2023-03-26T05:12:45.789Z,22.3623
2023-03-26T05:13:15.781Z,21.43848
2023-03-26T05:13:45.789Z,20.54297
2023-03-26T05:14:15.787Z,20.03418
2023-03-26T05:14:45.785Z,19.31348
2023-03-26T05:15:15.810Z,19.02246
2023-03-26T05:15:45.795Z,19.28125
2023-03-26T05:16:15.840Z,19.02832
2023-03-26T05:16:45.802Z,18.26758
2023-03-26T05:17:15.800Z,17.58789
2023-03-26T05:17:45.826Z,16.94336
2023-03-26T05:18:15.792Z,16.67285
2023-03-26T05:18:45.784Z,17.28809
2023-03-26T05:19:15.786Z,17.05371
2023-03-26T05:19:45.798Z,17.97656
2023-03-26T05:20:15.790Z,17.58398
2023-03-26T05:20:45.787Z,17.3916
2023-03-26T05:21:15.797Z,17.44824
2023-03-26T05:21:45.786Z,16.93555
2023-03-26T05:22:15.786Z,16.79004
2023-03-26T05:22:45.790Z,16.7373
2023-03-26T05:23:15.797Z,17.0791
2023-03-26T05:23:45.786Z,17.35059
2023-03-26T05:24:15.796Z,17.64258
2023-03-26T05:24:45.804Z,17.97168
2023-03-26T05:25:15.793Z,18.01953
2023-03-26T05:25:45.796Z,18.29883
2023-03-26T05:26:15.797Z,18.12305
2023-03-26T05:26:45.799Z,18.47363
2023-03-26T05:27:15.805Z,18.96289
2023-03-26T05:27:45.786Z,19.46484
2023-03-26T05:28:15.808Z,18.73242
2023-03-26T05:28:45.795Z,18.67285
2023-03-26T05:29:15.796Z,19.71875
2023-03-26T05:29:45.792Z,19.84473
2023-03-26T05:30:15.794Z,19.2002
2023-03-26T05:30:45.791Z,18.49609
2023-03-26T05:31:15.802Z,17.88672
2023-03-26T05:31:45.795Z,17.44141
2023-03-26T05:32:15.799Z,17.79004
2023-03-26T05:32:45.834Z,20.68945
2023-03-26T05:33:15.869Z,21.06836
2023-03-26T05:33:45.910Z,20.33105
2023-03-26T05:34:15.794Z,22.51074
2023-03-26T05:34:45.789Z,22.17676
2023-03-26T05:35:15.801Z,24.57813
2023-03-26T05:35:45.826Z,23.61914
2023-03-26T05:36:15.801Z,21.67188
2023-03-26T05:36:45.806Z,19.41797
2023-03-26T05:37:15.794Z,18.28711
2023-03-26T05:37:45.797Z,18.29199
2023-03-26T05:38:15.792Z,19.89258
2023-03-26T05:38:45.796Z,19.68945
2023-03-26T05:39:15.806Z,21.15625
2023-03-26T05:39:45.801Z,20.86328
2023-03-26T05:40:15.799Z,19.79297
2023-03-26T05:40:45.800Z,20.375
2023-03-26T05:41:15.817Z,22.24707
2023-03-26T05:41:45.799Z,22.21387
2023-03-26T05:42:15.806Z,22.47266
2023-03-26T05:42:45.803Z,23.39648
2023-03-26T05:43:15.799Z,23.46387
2023-03-26T05:43:45.805Z,23.37109
2023-03-26T05:44:15.799Z,23.90332
2023-03-26T05:44:45.796Z,25.7207
2023-03-26T05:45:15.807Z,24.76953
2023-03-26T05:45:45.842Z,24.29395
2023-03-26T05:46:15.941Z,23.6084
2023-03-26T05:46:45.802Z,26.83105
2023-03-26T05:47:15.801Z,27.00977
2023-03-26T05:47:45.830Z,25.60742
2023-03-26T05:48:15.806Z,25.38281
2023-03-26T05:48:45.805Z,25.18359
2023-03-26T05:49:15.800Z,23.12793
2023-03-26T05:49:45.808Z,22.45996
2023-03-26T05:50:15.820Z,22.32031
2023-03-26T05:50:45.796Z,20.61719
2023-03-26T05:51:15.802Z,21.75391
2023-03-26T05:51:45.802Z,22.32031
2023-03-26T05:52:15.797Z,22.46582
2023-03-26T05:52:45.800Z,22.17578
2023-03-26T05:53:15.802Z,21.61621
2023-03-26T05:53:45.812Z,20.30859